| time (UTC) | temp F | wind direction | speed knots | gust knots | rain 1hr in | rain 24hr in | rain mn in | humidity % | barometer mb |
| 20260504223321 | 83 | 3 | 1.7 | 3.5 | 0.00 | 0.00 | 0.00 | 80 | 1013.5 |
| 20260504222818 | 83 | 2 | 1.7 | 2.6 | 0.00 | 0.00 | 0.00 | 80 | 1013.4 |
| 20260504222315 | 83 | 6 | 2.6 | 3.5 | 0.00 | 0.00 | 0.00 | 79 | 1013.5 |
| 20260504221814 | 84 | 1 | 1.7 | 2.6 | 0.00 | 0.00 | 0.00 | 78 | 1013.4 |
| 20260504221310 | 84 | 4 | 1.7 | 1.7 | 0.00 | 0.00 | 0.00 | 78 | 1013.5 |
| 20260504220807 | 84 | 353 | 2.6 | 3.5 | 0.00 | 0.00 | 0.00 | 78 | 1013.5 |
| 20260504220304 | 84 | 4 | 1.7 | 2.6 | 0.00 | 0.00 | 0.00 | 77 | 1013.4 |
| 20260504215801 | 85 | 17 | 2.6 | 3.5 | 0.00 | 0.00 | 0.00 | 76 | 1013.6 |
| 20260504215257 | 86 | 10 | 2.6 | 3.5 | 0.00 | 0.00 | 0.00 | 74 | 1013.4 |
| 20260504214753 | 87 | 8 | 2.6 | 3.5 | 0.00 | 0.00 | 0.00 | 71 | 1013.5 |
| 20260504214250 | 88 | 314 | 0.9 | 2.6 | 0.00 | 0.00 | 0.00 | 70 | 1013.4 |
| 20260504213747 | 88 | 110 | 0.9 | 2.6 | 0.00 | 0.00 | 0.00 | 70 | 1013.1 |
| 20260504213243 | 88 | 119 | 0.0 | 2.6 | 0.00 | 0.00 | 0.00 | 71 | 1013.3 |
| 20260504212740 | 88 | 55 | 0.0 | 3.5 | 0.00 | 0.00 | 0.00 | 70 | 1013.4 |
| 20260504212237 | 87 | 106 | 0.0 | 1.7 | 0.00 | 0.00 | 0.00 | 72 | 1013.1 |
| 20260504211734 | 86 | 303 | 0.9 | 4.3 | 0.00 | 0.00 | 0.00 | 72 | 1013.3 |
| 20260504211230 | 87 | 259 | 0.0 | 4.3 | 0.00 | 0.00 | 0.00 | 71 | 1013.2 |
| 20260504210728 | 87 | 248 | 0.9 | 4.3 | 0.00 | 0.00 | 0.00 | 71 | 1013.2 |
| 20260504210225 | 87 | 116 | 0.0 | 1.7 | 0.00 | 0.00 | 0.00 | 71 | 1013.1 |
| 20260504205722 | 88 | 174 | 1.7 | 3.5 | 0.00 | 0.00 | 0.00 | 69 | 1013.2 |
| 20260504205220 | 89 | 120 | 1.7 | 2.6 | 0.00 | 0.00 | 0.00 | 70 | 1013.1 |
| 20260504204718 | 88 | 234 | 2.6 | 3.5 | 0.00 | 0.00 | 0.00 | 70 | 1013.2 |
| 20260504204216 | 88 | 201 | 1.7 | 3.5 | 0.00 | 0.00 | 0.00 | 70 | 1013.3 |
| 20260504203715 | 87 | 127 | 0.9 | 2.6 | 0.00 | 0.00 | 0.00 | 71 | 1013.3 |
| 20260504203212 | 87 | 196 | 1.7 | 4.3 | 0.00 | 0.00 | 0.00 | 70 | 1013.4 |
| 20260504202712 | 87 | 241 | 0.0 | 2.6 | 0.00 | 0.00 | 0.00 | 71 | 1013.4 |
| 20260504202209 | 89 | 221 | 0.9 | 3.5 | 0.00 | 0.00 | 0.00 | 69 | 1013.5 |
| 20260504201706 | 89 | 311 | 2.6 | 4.3 | 0.00 | 0.00 | 0.00 | 70 | 1013.5 |
| 20260504201204 | 88 | 98 | 0.0 | 5.2 | 0.00 | 0.00 | 0.00 | 70 | 1013.6 |
| 20260504200701 | 87 | 195 | 2.6 | 2.6 | 0.00 | 0.00 | 0.00 | 71 | 1013.7 |
| 20260504200157 | 87 | 215 | 1.7 | 3.5 | 0.00 | 0.00 | 0.00 | 71 | 1013.6 |
| 20260504195653 | 87 | 248 | 1.7 | 4.3 | 0.00 | 0.00 | 0.00 | 71 | 1013.6 |
| 20260504195149 | 87 | 217 | 2.6 | 4.3 | 0.00 | 0.00 | 0.00 | 71 | 1013.6 |
| 20260504194646 | 87 | 77 | 0.0 | 3.5 | 0.00 | 0.00 | 0.00 | 71 | 1013.6 |
| 20260504194142 | 87 | 323 | 0.0 | 2.6 | 0.00 | 0.00 | 0.00 | 70 | 1013.6 |
| 20260504193639 | 88 | 234 | 3.5 | 4.3 | 0.00 | 0.00 | 0.00 | 67 | 1013.8 |
| 20260504193137 | 88 | 237 | 2.6 | 4.3 | 0.00 | 0.00 | 0.00 | 69 | 1013.8 |
| 20260504192634 | 89 | 207 | 0.9 | 4.3 | 0.00 | 0.00 | 0.00 | 69 | 1013.9 |
| 20260504192133 | 88 | 198 | 2.6 | 7.8 | 0.00 | 0.00 | 0.00 | 69 | 1013.8 |
| 20260504191631 | 88 | 204 | 1.7 | 4.3 | 0.00 | 0.00 | 0.00 | 71 | 1013.8 |
| 20260504191126 | 88 | 137 | 1.7 | 4.3 | 0.00 | 0.00 | 0.00 | 70 | 1013.9 |
| 20260504190623 | 89 | 189 | 3.5 | 4.3 | 0.00 | 0.00 | 0.00 | 71 | 1014.0 |
| 20260504190120 | 88 | 71 | 1.7 | 4.3 | 0.00 | 0.00 | 0.00 | 71 | 1014.0 |
| 20260504185616 | 88 | 265 | 0.9 | 3.5 | 0.00 | 0.00 | 0.00 | 73 | 1014.1 |
| 20260504185113 | 88 | 278 | 1.7 | 5.2 | 0.00 | 0.00 | 0.00 | 71 | 1014.2 |
| 20260504184608 | 87 | 181 | 1.7 | 4.3 | 0.00 | 0.00 | 0.00 | 73 | 1014.1 |
| 20260504184104 | 86 | 295 | 0.0 | 4.3 | 0.00 | 0.00 | 0.00 | 73 | 1014.0 |
| 20260504183601 | 86 | 169 | 2.6 | 4.3 | 0.00 | 0.00 | 0.00 | 73 | 1014.6 |
| 20260504183059 | 86 | 256 | 1.7 | 2.6 | 0.00 | 0.00 | 0.00 | 73 | 1014.5 |
| 20260504182556 | 87 | 210 | 2.6 | 5.2 | 0.00 | 0.00 | 0.00 | 72 | 1014.9 |
| 20260504182053 | 86 | 268 | 3.5 | 7.8 | 0.00 | 0.00 | 0.00 | 72 | 1014.8 |
| 20260504181550 | 87 | 237 | 2.6 | 5.2 | 0.00 | 0.00 | 0.00 | 72 | 1014.7 |
| 20260504181048 | 87 | 177 | 0.9 | 3.5 | 0.00 | 0.00 | 0.00 | 72 | 1014.9 |
| 20260504180547 | 87 | 282 | 1.7 | 2.6 | 0.00 | 0.00 | 0.00 | 73 | 1014.9 |
| 20260504180045 | 86 | 286 | 1.7 | 5.2 | 0.00 | 0.00 | 0.00 | 73 | 1014.8 |
| 20260504175542 | 86 | 224 | 3.5 | 3.5 | 0.00 | 0.00 | 0.00 | 74 | 1014.9 |
| 20260504175039 | 86 | 244 | 1.7 | 4.3 | 0.00 | 0.00 | 0.00 | 73 | 1014.9 |
| 20260504174537 | 86 | 290 | 0.9 | 4.3 | 0.00 | 0.00 | 0.00 | 72 | 1014.8 |
| 20260504174033 | 86 | 80 | 0.0 | 6.1 | 0.00 | 0.00 | 0.00 | 72 | 1015.0 |
| 20260504173530 | 87 | 172 | 1.7 | 3.5 | 0.00 | 0.00 | 0.00 | 73 | 1015.3 |
| 20260504173028 | 86 | 267 | 4.3 | 4.3 | 0.00 | 0.00 | 0.00 | 74 | 1015.0 |
| 20260504172524 | 85 | 238 | 2.6 | 6.1 | 0.00 | 0.00 | 0.00 | 74 | 1015.3 |
| 20260504172020 | 87 | 198 | 1.7 | 5.2 | 0.00 | 0.00 | 0.00 | 73 | 1015.0 |
| 20260504171517 | 87 | 202 | 2.6 | 5.2 | 0.00 | 0.00 | 0.00 | 72 | 1015.2 |
| 20260504171014 | 87 | 228 | 3.5 | 5.2 | 0.00 | 0.00 | 0.00 | 73 | 1015.3 |
| 20260504170510 | 87 | 238 | 2.6 | 6.1 | 0.00 | 0.00 | 0.00 | 72 | 1015.4 |
| 20260504160431 | 86 | 275 | 0.0 | 4.3 | 0.00 | 0.00 | 0.00 | 75 | 1014.9 |
| 20260504150854 | 86 | 184 | 2.6 | 4.3 | 0.00 | 0.00 | 0.00 | 76 | 1015.5 |
| 20260504150351 | 86 | 207 | 5.2 | 5.2 | 0.00 | 0.00 | 0.00 | 76 | 1015.5 |
| 20260504141321 | 86 | 173 | 0.0 | 5.2 | 0.00 | 0.00 | 0.00 | 77 | 1015.6 |
| 20260504140817 | 85 | 145 | 0.0 | 4.3 | 0.00 | 0.00 | 0.00 | 79 | 1015.6 |
| 20260504140313 | 84 | 184 | 2.6 | 4.3 | 0.00 | 0.00 | 0.00 | 80 | 1015.6 |
| 20260504130742 | 84 | 234 | 1.7 | 7.0 | 0.00 | 0.00 | 0.00 | 81 | 1015.0 |
| 20260504130238 | 84 | 167 | 3.5 | 3.5 | 0.00 | 0.00 | 0.00 | 83 | 1015.1 |
| 20260504120202 | 82 | 140 | 4.3 | 4.3 | 0.00 | 0.00 | 0.00 | 89 | 1014.2 |
| 20260504110629 | 78 | 111 | 1.7 | 3.5 | 0.00 | 0.00 | 0.00 | 93 | 1013.9 |
| 20260504110125 | 78 | 100 | 1.7 | 2.6 | 0.00 | 0.00 | 0.00 | 93 | 1013.8 |
| 20260504100551 | 76 | 134 | 1.7 | 4.3 | 0.00 | 0.00 | 0.00 | 93 | 1013.3 |
| 20260504081944 | 77 | 135 | 3.5 | 3.5 | 0.00 | 0.00 | 0.00 | 93 | 1013.4 |
| 20260504081442 | 77 | 117 | 2.6 | 4.3 | 0.00 | 0.00 | 0.00 | 93 | 1013.2 |
| 20260504080937 | 76 | 125 | 0.9 | 3.5 | 0.00 | 0.00 | 0.00 | 93 | 1013.3 |
| 20260504080434 | 76 | 128 | 5.2 | 5.2 | 0.00 | 0.00 | 0.00 | 93 | 1013.4 |
| 20260504070402 | 77 | 84 | 0.0 | 2.6 | 0.00 | 0.00 | 0.00 | 92 | 1013.9 |
| 20260504050749 | 78 | 116 | 1.7 | 2.6 | 0.00 | 0.00 | 0.00 | 92 | 1015.5 |
| 20260504050247 | 78 | 97 | 0.9 | 3.5 | 0.00 | 0.00 | 0.00 | 92 | 1015.5 |
| 20260504045745 | 78 | 108 | 1.7 | 2.6 | 0.00 | 0.00 | 0.00 | 92 | 1015.5 |
| 20260504045244 | 78 | 118 | 1.7 | 3.5 | 0.00 | 0.00 | 0.00 | 92 | 1015.3 |
| 20260504044742 | 78 | 102 | 1.7 | 3.5 | 0.00 | 0.00 | 0.00 | 91 | 1015.6 |
| 20260504044240 | 78 | 136 | 2.6 | 3.5 | 0.00 | 0.00 | 0.00 | 91 | 1015.6 |
| 20260504043737 | 78 | 120 | 0.9 | 3.5 | 0.00 | 0.00 | 0.00 | 91 | 1015.7 |
| 20260504043233 | 78 | 109 | 2.6 | 3.5 | 0.00 | 0.00 | 0.00 | 91 | 1015.6 |
| 20260504042731 | 78 | 93 | 2.6 | 3.5 | 0.00 | 0.00 | 0.00 | 91 | 1015.7 |
| 20260504042227 | 78 | 101 | 2.6 | 3.5 | 0.00 | 0.00 | 0.00 | 91 | 1015.7 |
| 20260504041724 | 78 | 120 | 3.5 | 4.3 | 0.00 | 0.00 | 0.00 | 91 | 1015.8 |
| 20260504041220 | 78 | 128 | 1.7 | 2.6 | 0.00 | 0.00 | 0.00 | 91 | 1015.7 |
| 20260504040716 | 78 | 56 | 1.7 | 2.6 | 0.00 | 0.00 | 0.00 | 91 | 1015.6 |
| 20260504040214 | 78 | 105 | 1.7 | 2.6 | 0.00 | 0.00 | 0.00 | 91 | 1015.8 |
| 20260504035710 | 78 | 112 | 2.6 | 3.5 | 0.00 | 0.00 | 0.00 | 91 | 1015.7 |
| 20260504035207 | 78 | 57 | 0.0 | 2.6 | 0.00 | 0.00 | 0.00 | 91 | 1015.8 |
| 20260504034704 | 79 | 109 | 3.5 | 3.5 | 0.00 | 0.00 | 0.00 | 91 | 1015.8 |
| 20260504034201 | 79 | 91 | 1.7 | 4.3 | 0.00 | 0.00 | 0.00 | 91 | 1016.0 |
| 20260504033659 | 79 | 106 | 4.3 | 4.3 | 0.00 | 0.00 | 0.00 | 91 | 1015.9 |
| 20260504033156 | 79 | 94 | 2.6 | 5.2 | 0.00 | 0.00 | 0.00 | 91 | 1016.0 |
| 20260504032653 | 79 | 85 | 3.5 | 5.2 | 0.00 | 0.00 | 0.00 | 91 | 1016.0 |
| 20260504032150 | 79 | 85 | 2.6 | 3.5 | 0.00 | 0.00 | 0.00 | 91 | 1016.1 |
| 20260504031647 | 79 | 98 | 3.5 | 3.5 | 0.00 | 0.00 | 0.00 | 91 | 1016.2 |
| 20260504031143 | 79 | 91 | 1.7 | 2.6 | 0.00 | 0.00 | 0.00 | 90 | 1016.2 |
| 20260504030640 | 79 | 103 | 2.6 | 3.5 | 0.00 | 0.00 | 0.00 | 90 | 1016.2 |
| 20260504030137 | 79 | 96 | 1.7 | 2.6 | 0.00 | 0.00 | 0.00 | 90 | 1016.1 |
| 20260504025634 | 79 | 110 | 1.7 | 3.5 | 0.00 | 0.00 | 0.00 | 90 | 1016.3 |
| 20260504025131 | 79 | 118 | 3.5 | 3.5 | 0.00 | 0.00 | 0.00 | 90 | 1016.3 |
| 20260504024628 | 79 | 109 | 1.7 | 4.3 | 0.00 | 0.00 | 0.00 | 90 | 1016.4 |
| 20260504024124 | 79 | 110 | 1.7 | 3.5 | 0.00 | 0.00 | 0.00 | 90 | 1016.3 |
| 20260504023621 | 79 | 96 | 3.5 | 3.5 | 0.00 | 0.00 | 0.00 | 90 | 1016.1 |
| 20260504023117 | 79 | 117 | 2.6 | 3.5 | 0.00 | 0.00 | 0.00 | 90 | 1016.2 |
| 20260504022614 | 79 | 122 | 1.7 | 3.5 | 0.00 | 0.00 | 0.00 | 90 | 1016.0 |
| 20260504022109 | 79 | 108 | 3.5 | 4.3 | 0.00 | 0.00 | 0.00 | 90 | 1016.0 |
| 20260504021608 | 79 | 85 | 2.6 | 5.2 | 0.00 | 0.00 | 0.00 | 89 | 1016.0 |
| 20260504021104 | 80 | 84 | 3.5 | 3.5 | 0.00 | 0.00 | 0.00 | 89 | 1016.0 |
| 20260504020601 | 80 | 71 | 2.6 | 5.2 | 0.00 | 0.00 | 0.00 | 89 | 1016.0 |
| 20260504020057 | 80 | 76 | 5.2 | 7.0 | 0.00 | 0.00 | 0.00 | 89 | 1016.1 |
| 20260504015554 | 80 | 80 | 2.6 | 5.2 | 0.00 | 0.00 | 0.00 | 90 | 1015.9 |
| 20260504015049 | 80 | 85 | 3.5 | 5.2 | 0.00 | 0.00 | 0.00 | 90 | 1016.0 |
| 20260504014546 | 80 | 80 | 4.3 | 5.2 | 0.00 | 0.00 | 0.00 | 89 | 1015.9 |
| 20260504014043 | 80 | 78 | 2.6 | 5.2 | 0.00 | 0.00 | 0.00 | 90 | 1015.8 |
| 20260504013541 | 80 | 75 | 5.2 | 5.2 | 0.00 | 0.00 | 0.00 | 90 | 1015.7 |
| 20260504013038 | 80 | 88 | 5.2 | 7.0 | 0.00 | 0.00 | 0.00 | 90 | 1015.6 |
| 20260504012535 | 80 | 79 | 4.3 | 6.1 | 0.00 | 0.00 | 0.00 | 90 | 1015.7 |
| 20260504012033 | 80 | 73 | 5.2 | 6.1 | 0.00 | 0.00 | 0.00 | 90 | 1015.5 |
| 20260504011529 | 80 | 97 | 1.7 | 3.5 | 0.00 | 0.00 | 0.00 | 90 | 1015.6 |
| 20260504011026 | 79 | 84 | 3.5 | 5.2 | 0.00 | 0.00 | 0.00 | 90 | 1015.5 |
| 20260504010521 | 79 | 75 | 2.6 | 2.6 | 0.00 | 0.00 | 0.00 | 89 | 1015.6 |
| 20260504010017 | 79 | 71 | 1.7 | 3.5 | 0.00 | 0.00 | 0.00 | 89 | 1015.6 |
| 20260504005514 | 79 | 86 | 2.6 | 2.6 | 0.00 | 0.00 | 0.00 | 89 | 1015.3 |
| 20260504005012 | 79 | 89 | 1.7 | 3.5 | 0.00 | 0.00 | 0.00 | 89 | 1015.2 |
| 20260504004510 | 79 | 106 | 2.6 | 3.5 | 0.00 | 0.00 | 0.00 | 89 | 1015.1 |
| 20260504004007 | 79 | 101 | 3.5 | 3.5 | 0.00 | 0.00 | 0.00 | 89 | 1015.1 |
| 20260504003502 | 79 | 94 | 1.7 | 2.6 | 0.00 | 0.00 | 0.00 | 88 | 1015.2 |
| 20260504002959 | 79 | 102 | 2.6 | 2.6 | 0.00 | 0.00 | 0.00 | 88 | 1015.0 |
| 20260504002456 | 79 | 64 | 0.9 | 2.6 | 0.00 | 0.00 | 0.00 | 88 | 1014.8 |
| 20260504001954 | 79 | 98 | 2.6 | 3.5 | 0.00 | 0.00 | 0.00 | 88 | 1015.0 |
| 20260504001451 | 80 | 96 | 1.7 | 2.6 | 0.00 | 0.00 | 0.00 | 88 | 1014.9 |
| 20260504000947 | 80 | 131 | 0.9 | 2.6 | 0.00 | 0.00 | 0.00 | 87 | 1014.7 |
| 20260504000444 | 80 | 134 | 0.0 | 3.5 | 0.00 | 0.00 | 0.00 | 87 | 1015.0 |
| 20260503235942 | 80 | 115 | 1.7 | 2.6 | 0.00 | 0.00 | 0.00 | 87 | 1014.7 |
| 20260503235439 | 80 | 118 | 1.7 | 2.6 | 0.00 | 0.00 | 0.00 | 86 | 1014.8 |
| 20260503234937 | 80 | 118 | 1.7 | 2.6 | 0.00 | 0.00 | 0.00 | 86 | 1014.6 |
| 20260503234434 | 80 | 126 | 3.5 | 3.5 | 0.00 | 0.00 | 0.00 | 86 | 1014.7 |
| 20260503233932 | 80 | 106 | 0.9 | 2.6 | 0.00 | 0.00 | 0.00 | 85 | 1014.5 |
| 20260503233428 | 81 | 111 | 3.5 | 3.5 | 0.00 | 0.00 | 0.00 | 85 | 1014.4 |
| 20260503232925 | 81 | 117 | 3.5 | 4.3 | 0.00 | 0.00 | 0.00 | 84 | 1014.6 |
| 20260503232422 | 81 | 85 | 1.7 | 5.2 | 0.00 | 0.00 | 0.00 | 84 | 1014.4 |
| 20260503231920 | 81 | 55 | 1.7 | 3.5 | 0.00 | 0.00 | 0.00 | 83 | 1014.4 |
| 20260503231417 | 82 | 106 | 3.5 | 3.5 | 0.00 | 0.00 | 0.00 | 82 | 1014.6 |
| 20260503230913 | 82 | 96 | 1.7 | 3.5 | 0.00 | 0.00 | 0.00 | 82 | 1014.2 |
| 20260503230410 | 82 | 100 | 3.5 | 6.1 | 0.00 | 0.00 | 0.00 | 81 | 1014.3 |
| 20260503225908 | 82 | 105 | 2.6 | 4.3 | 0.00 | 0.00 | 0.00 | 81 | 1014.3 |
| 20260503225403 | 83 | 86 | 3.5 | 3.5 | 0.00 | 0.00 | 0.00 | 81 | 1014.3 |
| 20260503224900 | 83 | 98 | 1.7 | 4.3 | 0.00 | 0.00 | 0.00 | 80 | 1014.2 |
| 20260503224357 | 83 | 91 | 1.7 | 4.3 | 0.00 | 0.00 | 0.00 | 80 | 1014.2 |
| 20260503223855 | 83 | 98 | 1.7 | 6.1 | 0.00 | 0.00 | 0.00 | 80 | 1014.3 |